sensor_id;sensor_type;location;lat;lon;timestamp;temperature;humidity
31391;DHT22;18022;45.492;11.548;2022-08-01T00:02:13;23.20;92.80
31391;DHT22;18022;45.492;11.548;2022-08-01T00:04:38;23.20;92.80
31391;DHT22;18022;45.492;11.548;2022-08-01T00:07:04;23.20;92.70
31391;DHT22;18022;45.492;11.548;2022-08-01T00:09:30;23.30;92.60
31391;DHT22;18022;45.492;11.548;2022-08-01T00:11:56;23.30;92.50
31391;DHT22;18022;45.492;11.548;2022-08-01T00:14:21;23.30;92.60
31391;DHT22;18022;45.492;11.548;2022-08-01T00:16:47;23.40;92.50
31391;DHT22;18022;45.492;11.548;2022-08-01T00:19:13;23.40;92.70
31391;DHT22;18022;45.492;11.548;2022-08-01T00:21:38;23.20;93.00
31391;DHT22;18022;45.492;11.548;2022-08-01T00:24:04;23.10;93.10
31391;DHT22;18022;45.492;11.548;2022-08-01T00:26:30;23.20;93.30
31391;DHT22;18022;45.492;11.548;2022-08-01T00:28:55;23.30;92.90
31391;DHT22;18022;45.492;11.548;2022-08-01T00:31:21;23.50;92.80
31391;DHT22;18022;45.492;11.548;2022-08-01T00:33:47;23.50;92.70
31391;DHT22;18022;45.492;11.548;2022-08-01T00:36:12;23.30;93.00
31391;DHT22;18022;45.492;11.548;2022-08-01T00:38:38;23.10;93.80
31391;DHT22;18022;45.492;11.548;2022-08-01T00:41:04;22.90;94.70
31391;DHT22;18022;45.492;11.548;2022-08-01T00:43:29;22.70;94.60
31391;DHT22;18022;45.492;11.548;2022-08-01T00:45:55;22.60;95.00
31391;DHT22;18022;45.492;11.548;2022-08-01T00:48:21;22.80;95.00
31391;DHT22;18022;45.492;11.548;2022-08-01T00:50:46;22.90;94.80
31391;DHT22;18022;45.492;11.548;2022-08-01T00:53:12;22.90;94.50
31391;DHT22;18022;45.492;11.548;2022-08-01T00:55:38;23.00;94.70
31391;DHT22;18022;45.492;11.548;2022-08-01T00:58:04;23.00;94.50
31391;DHT22;18022;45.492;11.548;2022-08-01T01:00:30;23.10;94.50
31391;DHT22;18022;45.492;11.548;2022-08-01T01:02:57;23.20;94.50
31391;DHT22;18022;45.492;11.548;2022-08-01T01:05:23;23.20;94.50
31391;DHT22;18022;45.492;11.548;2022-08-01T01:08:08;23.20;94.40
31391;DHT22;18022;45.492;11.548;2022-08-01T01:10:48;22.80;94.90
31391;DHT22;18022;45.492;11.548;2022-08-01T01:15:59;22.50;95.60
31391;DHT22;18022;45.492;11.548;2022-08-01T01:18:33;22.40;95.50
31391;DHT22;18022;45.492;11.548;2022-08-01T01:26:38;22.60;95.20
31391;DHT22;18022;45.492;11.548;2022-08-01T01:31:48;22.60;95.70
31391;DHT22;18022;45.492;11.548;2022-08-01T01:34:17;22.60;95.70
31391;DHT22;18022;45.492;11.548;2022-08-01T01:36:44;22.60;95.50
31391;DHT22;18022;45.492;11.548;2022-08-01T01:39:11;22.60;95.70
31391;DHT22;18022;45.492;11.548;2022-08-01T01:41:40;22.50;95.90
31391;DHT22;18022;45.492;11.548;2022-08-01T01:44:09;22.40;95.90
31391;DHT22;18022;45.492;11.548;2022-08-01T01:46:36;22.40;95.90
31391;DHT22;18022;45.492;11.548;2022-08-01T01:49:03;22.30;96.00
31391;DHT22;18022;45.492;11.548;2022-08-01T01:51:30;22.40;96.10
31391;DHT22;18022;45.492;11.548;2022-08-01T01:53:57;22.40;96.00
31391;DHT22;18022;45.492;11.548;2022-08-01T01:56:24;22.40;96.00
31391;DHT22;18022;45.492;11.548;2022-08-01T01:58:55;22.30;96.20
31391;DHT22;18022;45.492;11.548;2022-08-01T02:01:23;22.30;96.50
31391;DHT22;18022;45.492;11.548;2022-08-01T02:03:51;22.20;96.70
31391;DHT22;18022;45.492;11.548;2022-08-01T02:06:19;22.10;96.90
31391;DHT22;18022;45.492;11.548;2022-08-01T02:08:47;22.10;97.10
31391;DHT22;18022;45.492;11.548;2022-08-01T02:11:13;22.00;97.10
31391;DHT22;18022;45.492;11.548;2022-08-01T02:14:01;22.00;97.10
31391;DHT22;18022;45.492;11.548;2022-08-01T02:16:29;22.00;97.20
31391;DHT22;18022;45.492;11.548;2022-08-01T02:18:56;22.00;97.30
31391;DHT22;18022;45.492;11.548;2022-08-01T02:21:40;22.00;97.30
31391;DHT22;18022;45.492;11.548;2022-08-01T02:27:15;22.00;97.60
31391;DHT22;18022;45.492;11.548;2022-08-01T02:29:49;22.00;97.70
31391;DHT22;18022;45.492;11.548;2022-08-01T02:32:24;21.90;98.00
31391;DHT22;18022;45.492;11.548;2022-08-01T02:34:52;21.80;97.90
31391;DHT22;18022;45.492;11.548;2022-08-01T02:37:19;21.80;98.00
31391;DHT22;18022;45.492;11.548;2022-08-01T02:39:48;21.80;98.30
31391;DHT22;18022;45.492;11.548;2022-08-01T02:42:18;21.80;98.30
31391;DHT22;18022;45.492;11.548;2022-08-01T02:44:45;21.80;98.40
31391;DHT22;18022;45.492;11.548;2022-08-01T02:47:12;21.90;98.60
31391;DHT22;18022;45.492;11.548;2022-08-01T02:49:45;21.90;98.70
31391;DHT22;18022;45.492;11.548;2022-08-01T02:52:14;21.80;98.90
31391;DHT22;18022;45.492;11.548;2022-08-01T02:54:43;21.80;98.90
31391;DHT22;18022;45.492;11.548;2022-08-01T02:57:12;21.80;99.00
31391;DHT22;18022;45.492;11.548;2022-08-01T02:59:39;21.80;99.10
31391;DHT22;18022;45.492;11.548;2022-08-01T03:02:06;21.80;99.10
31391;DHT22;18022;45.492;11.548;2022-08-01T03:04:37;21.80;99.10
31391;DHT22;18022;45.492;11.548;2022-08-01T03:07:06;21.70;99.20
31391;DHT22;18022;45.492;11.548;2022-08-01T03:09:37;21.60;99.40
31391;DHT22;18022;45.492;11.548;2022-08-01T03:12:07;21.40;99.70
31391;DHT22;18022;45.492;11.548;2022-08-01T03:14:36;21.30;99.90
31391;DHT22;18022;45.492;11.548;2022-08-01T03:17:04;21.40;99.90
31391;DHT22;18022;45.492;11.548;2022-08-01T03:19:30;21.40;99.90
31391;DHT22;18022;45.492;11.548;2022-08-01T03:21:57;21.40;99.90
31391;DHT22;18022;45.492;11.548;2022-08-01T03:24:29;21.60;99.90
31391;DHT22;18022;45.492;11.548;2022-08-01T03:26:56;21.60;99.90
31391;DHT22;18022;45.492;11.548;2022-08-01T03:29:26;21.60;99.90
31391;DHT22;18022;45.492;11.548;2022-08-01T03:31:53;21.60;99.90
31391;DHT22;18022;45.492;11.548;2022-08-01T03:34:19;21.60;99.90
31391;DHT22;18022;45.492;11.548;2022-08-01T03:36:59;21.50;99.90
31391;DHT22;18022;45.492;11.548;2022-08-01T03:39:31;21.50;99.90
31391;DHT22;18022;45.492;11.548;2022-08-01T03:42:01;21.50;99.90
31391;DHT22;18022;45.492;11.548;2022-08-01T03:44:32;21.40;99.90
31391;DHT22;18022;45.492;11.548;2022-08-01T03:47:02;21.70;99.90
31391;DHT22;18022;45.492;11.548;2022-08-01T03:49:36;21.60;99.90
31391;DHT22;18022;45.492;11.548;2022-08-01T03:52:04;21.60;99.90
31391;DHT22;18022;45.492;11.548;2022-08-01T03:54:36;21.60;99.90
31391;DHT22;18022;45.492;11.548;2022-08-01T03:57:02;21.60;99.90
31391;DHT22;18022;45.492;11.548;2022-08-01T03:59:30;21.60;99.90
31391;DHT22;18022;45.492;11.548;2022-08-01T04:01:57;21.60;99.90
31391;DHT22;18022;45.492;11.548;2022-08-01T04:04:23;21.70;99.90
31391;DHT22;18022;45.492;11.548;2022-08-01T04:06:49;21.70;99.90
31391;DHT22;18022;45.492;11.548;2022-08-01T04:09:20;21.70;99.90
31391;DHT22;18022;45.492;11.548;2022-08-01T04:11:46;21.60;99.90
31391;DHT22;18022;45.492;11.548;2022-08-01T04:14:12;21.50;99.90
31391;DHT22;18022;45.492;11.548;2022-08-01T04:16:38;21.40;99.90
31391;DHT22;18022;45.492;11.548;2022-08-01T04:19:04;21.50;99.90
31391;DHT22;18022;45.492;11.548;2022-08-01T04:21:34;21.70;99.90
31391;DHT22;18022;45.492;11.548;2022-08-01T04:24:09;21.70;99.90
31391;DHT22;18022;45.492;11.548;2022-08-01T04:26:37;21.60;99.90
31391;DHT22;18022;45.492;11.548;2022-08-01T04:29:03;21.50;99.90
31391;DHT22;18022;45.492;11.548;2022-08-01T04:31:31;21.50;99.90
31391;DHT22;18022;45.492;11.548;2022-08-01T04:33:58;21.50;99.90
31391;DHT22;18022;45.492;11.548;2022-08-01T04:36:25;21.50;99.90
31391;DHT22;18022;45.492;11.548;2022-08-01T04:38:55;21.50;99.90
31391;DHT22;18022;45.492;11.548;2022-08-01T04:41:23;21.50;99.90
31391;DHT22;18022;45.492;11.548;2022-08-01T04:43:50;21.50;99.90
31391;DHT22;18022;45.492;11.548;2022-08-01T04:46:17;21.50;99.90
31391;DHT22;18022;45.492;11.548;2022-08-01T04:48:44;21.40;99.90
31391;DHT22;18022;45.492;11.548;2022-08-01T04:51:14;21.50;99.90
31391;DHT22;18022;45.492;11.548;2022-08-01T04:53:41;21.50;99.90
31391;DHT22;18022;45.492;11.548;2022-08-01T04:56:07;21.60;99.90
31391;DHT22;18022;45.492;11.548;2022-08-01T04:58:33;21.70;99.90
31391;DHT22;18022;45.492;11.548;2022-08-01T05:00:59;21.80;99.90
31391;DHT22;18022;45.492;11.548;2022-08-01T05:03:25;21.80;99.90
31391;DHT22;18022;45.492;11.548;2022-08-01T05:05:50;21.70;99.90
31391;DHT22;18022;45.492;11.548;2022-08-01T05:08:16;21.90;99.90
31391;DHT22;18022;45.492;11.548;2022-08-01T05:10:42;21.90;99.90
31391;DHT22;18022;45.492;11.548;2022-08-01T05:13:08;21.90;99.90
31391;DHT22;18022;45.492;11.548;2022-08-01T05:15:37;22.00;99.90
31391;DHT22;18022;45.492;11.548;2022-08-01T05:18:03;22.00;99.90
31391;DHT22;18022;45.492;11.548;2022-08-01T05:20:29;22.10;99.90
31391;DHT22;18022;45.492;11.548;2022-08-01T05:22:54;22.10;99.90
31391;DHT22;18022;45.492;11.548;2022-08-01T05:25:20;22.10;99.90
31391;DHT22;18022;45.492;11.548;2022-08-01T05:27:47;22.10;99.90
31391;DHT22;18022;45.492;11.548;2022-08-01T05:30:13;22.20;99.90
31391;DHT22;18022;45.492;11.548;2022-08-01T05:32:39;22.30;99.90
31391;DHT22;18022;45.492;11.548;2022-08-01T05:35:05;22.40;99.90
31391;DHT22;18022;45.492;11.548;2022-08-01T05:37:31;22.40;99.90
31391;DHT22;18022;45.492;11.548;2022-08-01T05:39:56;22.50;99.90
31391;DHT22;18022;45.492;11.548;2022-08-01T05:42:22;22.60;99.90
31391;DHT22;18022;45.492;11.548;2022-08-01T05:44:48;22.70;99.90
31391;DHT22;18022;45.492;11.548;2022-08-01T05:47:14;22.70;99.90
31391;DHT22;18022;45.492;11.548;2022-08-01T05:49:39;22.80;99.90
31391;DHT22;18022;45.492;11.548;2022-08-01T05:52:05;22.90;99.90
31391;DHT22;18022;45.492;11.548;2022-08-01T05:54:32;23.00;99.90
31391;DHT22;18022;45.492;11.548;2022-08-01T05:56:58;23.10;99.90
31391;DHT22;18022;45.492;11.548;2022-08-01T05:59:30;23.20;99.90
31391;DHT22;18022;45.492;11.548;2022-08-01T06:01:56;23.40;99.90
31391;DHT22;18022;45.492;11.548;2022-08-01T06:04:22;23.60;99.90
31391;DHT22;18022;45.492;11.548;2022-08-01T06:06:48;23.50;99.90
31391;DHT22;18022;45.492;11.548;2022-08-01T06:09:14;23.50;99.90
31391;DHT22;18022;45.492;11.548;2022-08-01T06:11:40;23.60;99.90
31391;DHT22;18022;45.492;11.548;2022-08-01T06:14:06;23.70;99.90
31391;DHT22;18022;45.492;11.548;2022-08-01T06:16:31;23.70;99.90
31391;DHT22;18022;45.492;11.548;2022-08-01T06:18:57;23.70;99.90
31391;DHT22;18022;45.492;11.548;2022-08-01T06:21:23;23.70;99.90
31391;DHT22;18022;45.492;11.548;2022-08-01T06:23:49;23.90;99.90
31391;DHT22;18022;45.492;11.548;2022-08-01T06:26:17;24.10;99.90
31391;DHT22;18022;45.492;11.548;2022-08-01T06:28:43;24.20;99.90
31391;DHT22;18022;45.492;11.548;2022-08-01T06:31:09;24.40;99.90
31391;DHT22;18022;45.492;11.548;2022-08-01T06:33:36;24.50;97.60
31391;DHT22;18022;45.492;11.548;2022-08-01T06:36:02;24.70;97.40
31391;DHT22;18022;45.492;11.548;2022-08-01T06:38:28;24.80;97.10
31391;DHT22;18022;45.492;11.548;2022-08-01T06:40:54;24.90;96.10
31391;DHT22;18022;45.492;11.548;2022-08-01T06:43:19;25.00;95.90
31391;DHT22;18022;45.492;11.548;2022-08-01T06:45:46;25.20;95.20
31391;DHT22;18022;45.492;11.548;2022-08-01T06:48:12;25.20;94.80
31391;DHT22;18022;45.492;11.548;2022-08-01T06:50:38;25.40;96.70
31391;DHT22;18022;45.492;11.548;2022-08-01T06:53:04;25.50;95.20
31391;DHT22;18022;45.492;11.548;2022-08-01T06:55:30;25.50;95.00
31391;DHT22;18022;45.492;11.548;2022-08-01T06:57:56;25.50;94.90
31391;DHT22;18022;45.492;11.548;2022-08-01T07:00:23;25.60;95.10
31391;DHT22;18022;45.492;11.548;2022-08-01T07:02:51;25.60;96.40
31391;DHT22;18022;45.492;11.548;2022-08-01T07:05:17;25.70;96.80
31391;DHT22;18022;45.492;11.548;2022-08-01T07:07:43;25.70;97.60
31391;DHT22;18022;45.492;11.548;2022-08-01T07:10:09;25.80;98.00
31391;DHT22;18022;45.492;11.548;2022-08-01T07:12:35;25.90;98.50
31391;DHT22;18022;45.492;11.548;2022-08-01T07:15:05;25.90;98.70
31391;DHT22;18022;45.492;11.548;2022-08-01T07:17:31;26.00;98.40
31391;DHT22;18022;45.492;11.548;2022-08-01T07:19:56;26.10;99.30
31391;DHT22;18022;45.492;11.548;2022-08-01T07:22:22;26.20;99.80
31391;DHT22;18022;45.492;11.548;2022-08-01T07:24:48;26.20;99.70
31391;DHT22;18022;45.492;11.548;2022-08-01T07:27:13;26.20;99.70
31391;DHT22;18022;45.492;11.548;2022-08-01T07:29:39;26.40;99.70
31391;DHT22;18022;45.492;11.548;2022-08-01T07:32:05;26.50;99.90
31391;DHT22;18022;45.492;11.548;2022-08-01T07:34:31;26.50;99.50
31391;DHT22;18022;45.492;11.548;2022-08-01T07:36:56;26.50;99.50
31391;DHT22;18022;45.492;11.548;2022-08-01T07:39:22;26.50;99.80
31391;DHT22;18022;45.492;11.548;2022-08-01T07:41:48;26.50;99.80
31391;DHT22;18022;45.492;11.548;2022-08-01T07:44:13;26.60;99.90
31391;DHT22;18022;45.492;11.548;2022-08-01T07:46:39;26.70;99.90
31391;DHT22;18022;45.492;11.548;2022-08-01T07:49:05;26.70;99.90
31391;DHT22;18022;45.492;11.548;2022-08-01T07:51:31;26.90;99.90
31391;DHT22;18022;45.492;11.548;2022-08-01T07:53:56;27.00;99.90
31391;DHT22;18022;45.492;11.548;2022-08-01T07:56:22;27.00;99.90
31391;DHT22;18022;45.492;11.548;2022-08-01T07:58:49;27.10;99.90
31391;DHT22;18022;45.492;11.548;2022-08-01T08:01:15;27.10;99.90
31391;DHT22;18022;45.492;11.548;2022-08-01T08:03:41;27.10;99.90
31391;DHT22;18022;45.492;11.548;2022-08-01T08:06:06;27.20;99.90
31391;DHT22;18022;45.492;11.548;2022-08-01T08:08:32;27.30;99.90
31391;DHT22;18022;45.492;11.548;2022-08-01T08:11:00;27.40;99.90
31391;DHT22;18022;45.492;11.548;2022-08-01T08:13:25;27.50;99.90
31391;DHT22;18022;45.492;11.548;2022-08-01T08:15:51;27.50;99.90
31391;DHT22;18022;45.492;11.548;2022-08-01T08:18:30;27.60;99.90
31391;DHT22;18022;45.492;11.548;2022-08-01T08:20:55;27.70;99.90
31391;DHT22;18022;45.492;11.548;2022-08-01T08:23:21;27.80;99.70
31391;DHT22;18022;45.492;11.548;2022-08-01T08:26:05;27.80;99.20
31391;DHT22;18022;45.492;11.548;2022-08-01T08:28:32;27.90;98.50
31391;DHT22;18022;45.492;11.548;2022-08-01T08:30:58;27.90;97.80
31391;DHT22;18022;45.492;11.548;2022-08-01T08:33:24;28.00;97.70
31391;DHT22;18022;45.492;11.548;2022-08-01T08:35:49;28.00;97.40
31391;DHT22;18022;45.492;11.548;2022-08-01T08:38:15;28.10;97.20
31391;DHT22;18022;45.492;11.548;2022-08-01T08:40:41;28.10;96.50
31391;DHT22;18022;45.492;11.548;2022-08-01T08:43:07;28.20;97.00
31391;DHT22;18022;45.492;11.548;2022-08-01T08:45:33;28.40;97.10
31391;DHT22;18022;45.492;11.548;2022-08-01T08:48:00;28.40;97.00
31391;DHT22;18022;45.492;11.548;2022-08-01T08:50:26;28.50;97.30
31391;DHT22;18022;45.492;11.548;2022-08-01T08:52:55;28.60;96.90
31391;DHT22;18022;45.492;11.548;2022-08-01T08:55:22;28.60;96.80
31391;DHT22;18022;45.492;11.548;2022-08-01T08:57:49;28.70;97.10
31391;DHT22;18022;45.492;11.548;2022-08-01T09:00:15;28.80;97.00
31391;DHT22;18022;45.492;11.548;2022-08-01T09:02:46;28.90;96.40
31391;DHT22;18022;45.492;11.548;2022-08-01T09:05:12;29.00;96.20
31391;DHT22;18022;45.492;11.548;2022-08-01T09:07:38;29.10;96.70
31391;DHT22;18022;45.492;11.548;2022-08-01T09:10:05;29.20;96.10
31391;DHT22;18022;45.492;11.548;2022-08-01T09:12:31;29.30;96.00
31391;DHT22;18022;45.492;11.548;2022-08-01T09:14:57;29.50;95.80
31391;DHT22;18022;45.492;11.548;2022-08-01T09:17:23;29.50;95.60
31391;DHT22;18022;45.492;11.548;2022-08-01T09:19:54;29.60;95.00
31391;DHT22;18022;45.492;11.548;2022-08-01T09:22:22;29.50;94.40
31391;DHT22;18022;45.492;11.548;2022-08-01T09:25:07;29.50;94.60
31391;DHT22;18022;45.492;11.548;2022-08-01T09:27:34;29.60;94.40
31391;DHT22;18022;45.492;11.548;2022-08-01T09:32:34;29.90;93.90
31391;DHT22;18022;45.492;11.548;2022-08-01T09:35:29;30.00;93.80
31391;DHT22;18022;45.492;11.548;2022-08-01T09:38:17;30.00;93.50
31391;DHT22;18022;45.492;11.548;2022-08-01T09:41:00;30.10;93.60
31391;DHT22;18022;45.492;11.548;2022-08-01T09:43:28;30.10;93.10
31391;DHT22;18022;45.492;11.548;2022-08-01T09:45:55;30.00;93.00
31391;DHT22;18022;45.492;11.548;2022-08-01T09:48:21;30.10;93.60
31391;DHT22;18022;45.492;11.548;2022-08-01T09:50:49;30.50;92.80
31391;DHT22;18022;45.492;11.548;2022-08-01T09:53:15;30.60;92.10
31391;DHT22;18022;45.492;11.548;2022-08-01T09:55:41;30.50;92.20
31391;DHT22;18022;45.492;11.548;2022-08-01T09:58:08;30.50;91.70
31391;DHT22;18022;45.492;11.548;2022-08-01T10:00:34;30.60;92.10
31391;DHT22;18022;45.492;11.548;2022-08-01T10:03:19;30.70;92.10
31391;DHT22;18022;45.492;11.548;2022-08-01T10:05:45;30.90;91.30
31391;DHT22;18022;45.492;11.548;2022-08-01T10:08:13;31.00;92.00
31391;DHT22;18022;45.492;11.548;2022-08-01T10:10:38;31.20;91.60
31391;DHT22;18022;45.492;11.548;2022-08-01T10:13:04;31.30;91.60
31391;DHT22;18022;45.492;11.548;2022-08-01T10:15:31;31.40;91.30
31391;DHT22;18022;45.492;11.548;2022-08-01T10:18:02;31.40;91.00
31391;DHT22;18022;45.492;11.548;2022-08-01T10:20:31;31.40;90.50
31391;DHT22;18022;45.492;11.548;2022-08-01T10:23:02;31.30;90.60
31391;DHT22;18022;45.492;11.548;2022-08-01T10:25:31;31.30;90.50
31391;DHT22;18022;45.492;11.548;2022-08-01T10:27:59;31.30;90.60
31391;DHT22;18022;45.492;11.548;2022-08-01T10:30:27;31.30;90.70
31391;DHT22;18022;45.492;11.548;2022-08-01T10:32:53;31.50;90.10
31391;DHT22;18022;45.492;11.548;2022-08-01T10:35:20;31.60;88.30
31391;DHT22;18022;45.492;11.548;2022-08-01T10:37:48;31.70;88.30
31391;DHT22;18022;45.492;11.548;2022-08-01T10:40:16;31.70;88.10
31391;DHT22;18022;45.492;11.548;2022-08-01T10:42:43;31.60;87.80
31391;DHT22;18022;45.492;11.548;2022-08-01T10:45:11;31.60;87.90
31391;DHT22;18022;45.492;11.548;2022-08-01T10:47:49;31.70;88.70
31391;DHT22;18022;45.492;11.548;2022-08-01T10:50:36;31.90;85.40
31391;DHT22;18022;45.492;11.548;2022-08-01T10:53:25;31.80;87.50
31391;DHT22;18022;45.492;11.548;2022-08-01T10:58:34;32.10;87.90
31391;DHT22;18022;45.492;11.548;2022-08-01T11:04:10;32.30;88.50
31391;DHT22;18022;45.492;11.548;2022-08-01T11:06:43;32.50;87.40
31391;DHT22;18022;45.492;11.548;2022-08-01T11:12:00;32.60;86.30
31391;DHT22;18022;45.492;11.548;2022-08-01T11:14:27;32.40;86.40
31391;DHT22;18022;45.492;11.548;2022-08-01T11:16:53;32.40;86.20
31391;DHT22;18022;45.492;11.548;2022-08-01T11:19:19;32.60;84.30
31391;DHT22;18022;45.492;11.548;2022-08-01T11:27:21;32.50;82.00
31391;DHT22;18022;45.492;11.548;2022-08-01T11:32:49;32.60;81.90
31391;DHT22;18022;45.492;11.548;2022-08-01T11:35:15;32.70;81.70
31391;DHT22;18022;45.492;11.548;2022-08-01T11:37:41;33.00;82.50
31391;DHT22;18022;45.492;11.548;2022-08-01T11:40:21;33.00;83.30
31391;DHT22;18022;45.492;11.548;2022-08-01T11:42:49;32.70;85.00
31391;DHT22;18022;45.492;11.548;2022-08-01T11:45:15;32.80;85.50
31391;DHT22;18022;45.492;11.548;2022-08-01T11:53:04;32.80;85.40
31391;DHT22;18022;45.492;11.548;2022-08-01T11:55:31;33.10;84.40
31391;DHT22;18022;45.492;11.548;2022-08-01T11:58:05;33.10;85.20
31391;DHT22;18022;45.492;11.548;2022-08-01T12:00:32;33.20;83.90
31391;DHT22;18022;45.492;11.548;2022-08-01T12:03:00;33.10;83.70
31391;DHT22;18022;45.492;11.548;2022-08-01T12:05:26;33.30;83.90
31391;DHT22;18022;45.492;11.548;2022-08-01T12:07:53;33.30;83.50
31391;DHT22;18022;45.492;11.548;2022-08-01T12:10:23;33.30;86.30
31391;DHT22;18022;45.492;11.548;2022-08-01T12:12:52;33.40;84.90
31391;DHT22;18022;45.492;11.548;2022-08-01T12:15:20;33.40;84.20
31391;DHT22;18022;45.492;11.548;2022-08-01T12:18:06;33.20;82.70
31391;DHT22;18022;45.492;11.548;2022-08-01T12:20:37;33.10;82.50
31391;DHT22;18022;45.492;11.548;2022-08-01T12:23:05;33.10;84.20
31391;DHT22;18022;45.492;11.548;2022-08-01T12:25:33;33.20;81.80
31391;DHT22;18022;45.492;11.548;2022-08-01T12:28:04;33.50;83.50
31391;DHT22;18022;45.492;11.548;2022-08-01T12:30:31;33.30;81.60
31391;DHT22;18022;45.492;11.548;2022-08-01T12:33:02;33.30;82.20
31391;DHT22;18022;45.492;11.548;2022-08-01T12:35:29;33.50;82.10
31391;DHT22;18022;45.492;11.548;2022-08-01T12:38:03;33.60;82.10
31391;DHT22;18022;45.492;11.548;2022-08-01T12:40:32;33.60;79.90
31391;DHT22;18022;45.492;11.548;2022-08-01T12:43:00;33.60;80.90
31391;DHT22;18022;45.492;11.548;2022-08-01T12:48:00;33.40;80.10
31391;DHT22;18022;45.492;11.548;2022-08-01T12:50:31;33.60;80.30
31391;DHT22;18022;45.492;11.548;2022-08-01T12:52:57;33.70;78.90
31391;DHT22;18022;45.492;11.548;2022-08-01T12:55:25;33.90;81.60
31391;DHT22;18022;45.492;11.548;2022-08-01T12:58:05;33.70;79.10
31391;DHT22;18022;45.492;11.548;2022-08-01T13:00:32;33.70;79.30
31391;DHT22;18022;45.492;11.548;2022-08-01T13:03:07;33.50;79.00
31391;DHT22;18022;45.492;11.548;2022-08-01T13:05:49;33.30;79.30
31391;DHT22;18022;45.492;11.548;2022-08-01T13:08:33;33.20;80.60
31391;DHT22;18022;45.492;11.548;2022-08-01T13:11:08;33.30;78.50
31391;DHT22;18022;45.492;11.548;2022-08-01T13:13:51;33.50;77.90
31391;DHT22;18022;45.492;11.548;2022-08-01T13:16:17;33.60;77.70
31391;DHT22;18022;45.492;11.548;2022-08-01T13:18:49;33.80;77.90
31391;DHT22;18022;45.492;11.548;2022-08-01T13:21:28;33.50;81.00
31391;DHT22;18022;45.492;11.548;2022-08-01T13:24:13;33.60;78.00
31391;DHT22;18022;45.492;11.548;2022-08-01T13:26:49;33.80;78.80
31391;DHT22;18022;45.492;11.548;2022-08-01T13:29:18;33.90;78.80
31391;DHT22;18022;45.492;11.548;2022-08-01T13:31:46;33.90;77.50
31391;DHT22;18022;45.492;11.548;2022-08-01T13:34:12;34.00;78.10
31391;DHT22;18022;45.492;11.548;2022-08-01T13:36:39;33.90;77.50
31391;DHT22;18022;45.492;11.548;2022-08-01T13:39:05;34.00;78.60
31391;DHT22;18022;45.492;11.548;2022-08-01T13:41:51;34.00;76.00
31391;DHT22;18022;45.492;11.548;2022-08-01T13:44:17;34.10;76.40
31391;DHT22;18022;45.492;11.548;2022-08-01T13:46:44;34.10;75.70
31391;DHT22;18022;45.492;11.548;2022-08-01T13:49:11;34.30;75.60
31391;DHT22;18022;45.492;11.548;2022-08-01T13:51:37;34.40;76.50
31391;DHT22;18022;45.492;11.548;2022-08-01T13:54:04;34.30;77.10
31391;DHT22;18022;45.492;11.548;2022-08-01T13:56:30;34.30;79.80
31391;DHT22;18022;45.492;11.548;2022-08-01T13:58:56;34.30;77.40
31391;DHT22;18022;45.492;11.548;2022-08-01T14:01:23;34.30;77.30
31391;DHT22;18022;45.492;11.548;2022-08-01T14:03:49;34.20;77.00
31391;DHT22;18022;45.492;11.548;2022-08-01T14:06:17;34.10;77.10
31391;DHT22;18022;45.492;11.548;2022-08-01T14:08:43;34.00;79.00
31391;DHT22;18022;45.492;11.548;2022-08-01T14:11:09;34.10;77.10
31391;DHT22;18022;45.492;11.548;2022-08-01T14:13:35;34.20;76.30
31391;DHT22;18022;45.492;11.548;2022-08-01T14:16:04;34.30;77.50
31391;DHT22;18022;45.492;11.548;2022-08-01T14:18:30;34.00;77.80
31391;DHT22;18022;45.492;11.548;2022-08-01T14:20:55;33.50;78.10
31391;DHT22;18022;45.492;11.548;2022-08-01T14:23:21;33.60;77.90
31391;DHT22;18022;45.492;11.548;2022-08-01T14:25:47;33.80;78.40
31391;DHT22;18022;45.492;11.548;2022-08-01T14:28:12;34.00;78.80
31391;DHT22;18022;45.492;11.548;2022-08-01T14:30:38;34.00;77.20
31391;DHT22;18022;45.492;11.548;2022-08-01T14:33:06;34.00;77.30
31391;DHT22;18022;45.492;11.548;2022-08-01T14:35:32;33.80;75.60
31391;DHT22;18022;45.492;11.548;2022-08-01T14:37:57;33.90;76.30
31391;DHT22;18022;45.492;11.548;2022-08-01T14:40:23;34.00;76.80
31391;DHT22;18022;45.492;11.548;2022-08-01T14:42:49;34.10;78.00
31391;DHT22;18022;45.492;11.548;2022-08-01T14:45:24;34.10;78.40
31391;DHT22;18022;45.492;11.548;2022-08-01T14:47:49;34.10;77.50
31391;DHT22;18022;45.492;11.548;2022-08-01T14:50:15;34.00;74.80
31391;DHT22;18022;45.492;11.548;2022-08-01T14:52:42;34.00;74.90
31391;DHT22;18022;45.492;11.548;2022-08-01T14:55:19;34.10;73.60
31391;DHT22;18022;45.492;11.548;2022-08-01T14:57:49;34.00;72.90
31391;DHT22;18022;45.492;11.548;2022-08-01T15:00:15;34.10;73.40
31391;DHT22;18022;45.492;11.548;2022-08-01T15:02:42;34.00;76.70
31391;DHT22;18022;45.492;11.548;2022-08-01T15:05:08;33.90;74.40
31391;DHT22;18022;45.492;11.548;2022-08-01T15:07:35;34.00;75.90
31391;DHT22;18022;45.492;11.548;2022-08-01T15:10:03;33.90;76.50
31391;DHT22;18022;45.492;11.548;2022-08-01T15:12:28;34.00;77.90
31391;DHT22;18022;45.492;11.548;2022-08-01T15:14:54;34.00;76.80
31391;DHT22;18022;45.492;11.548;2022-08-01T15:17:22;34.00;75.00
31391;DHT22;18022;45.492;11.548;2022-08-01T15:19:53;34.00;74.60
31391;DHT22;18022;45.492;11.548;2022-08-01T15:22:20;34.00;75.00
31391;DHT22;18022;45.492;11.548;2022-08-01T15:24:50;34.00;76.00
31391;DHT22;18022;45.492;11.548;2022-08-01T15:27:16;34.00;76.60
31391;DHT22;18022;45.492;11.548;2022-08-01T15:29:42;34.00;76.80
31391;DHT22;18022;45.492;11.548;2022-08-01T15:32:08;34.00;77.30
31391;DHT22;18022;45.492;11.548;2022-08-01T15:34:35;34.00;76.30
31391;DHT22;18022;45.492;11.548;2022-08-01T15:37:02;34.00;76.00
31391;DHT22;18022;45.492;11.548;2022-08-01T15:39:28;34.10;77.10
31391;DHT22;18022;45.492;11.548;2022-08-01T15:41:54;34.00;78.00
31391;DHT22;18022;45.492;11.548;2022-08-01T15:44:20;34.00;77.80
31391;DHT22;18022;45.492;11.548;2022-08-01T15:46:50;34.00;78.20
31391;DHT22;18022;45.492;11.548;2022-08-01T15:49:16;33.90;79.60
31391;DHT22;18022;45.492;11.548;2022-08-01T15:51:42;33.90;76.30
31391;DHT22;18022;45.492;11.548;2022-08-01T15:54:08;33.90;77.40
31391;DHT22;18022;45.492;11.548;2022-08-01T15:56:35;33.80;76.60
31391;DHT22;18022;45.492;11.548;2022-08-01T15:59:01;33.90;76.10
31391;DHT22;18022;45.492;11.548;2022-08-01T16:01:27;34.00;77.00
31391;DHT22;18022;45.492;11.548;2022-08-01T16:03:54;34.00;75.20